Time;durP1;ratioP1;P1;durP2;ratioP2;P2;SDS_P1;SDS_P2;PMS_P1;PMS_P2;Temp;Humidity;BMP_temperature;BMP_pressure;BME280_temperature;BME280_humidity;BME280_pressure;Samples;Min_cycle;Max_cycle;Signal;HPM_P1;HPM_P2
2023/12/07 00:01:22;;;;;;;22.70;14.90;;;;;;;0.66;87.58;95286.29;106607;1275;25352;-77
2023/12/07 00:03:51;;;;;;;21.10;14.40;;;;;;;0.65;87.75;95286.79;106634;1275;22523;-78
2023/12/07 00:06:19;;;;;;;26.40;15.60;;;;;;;0.65;87.86;95286.98;106588;1275;22639;-77
2023/12/07 00:08:47;;;;;;;31.90;19.80;;;;;;;0.72;88.29;95284.48;106584;1275;22528;-77
2023/12/07 00:11:16;;;;;;;36.00;21.50;;;;;;;0.87;88.45;95287.27;106671;1275;22522;-77
2023/12/07 00:13:44;;;;;;;60.90;28.80;;;;;;;0.93;88.12;95290.48;106625;1275;24265;-77
2023/12/07 00:16:12;;;;;;;83.20;38.60;;;;;;;1.04;88.44;95292.52;106691;1275;22551;-77
2023/12/07 00:18:40;;;;;;;92.00;43.00;;;;;;;1.14;88.14;95294.89;106635;1275;25356;-77
2023/12/07 00:21:09;;;;;;;79.90;37.20;;;;;;;1.14;87.33;95292.64;106702;1275;22801;-77
2023/12/07 00:23:38;;;;;;;71.40;34.50;;;;;;;1.11;87.03;95294.87;106759;1275;24490;-77
2023/12/07 00:26:06;;;;;;;79.90;36.40;;;;;;;1.04;86.57;95294.27;106604;1275;22529;-77
2023/12/07 00:28:34;;;;;;;66.50;33.10;;;;;;;0.91;86.51;95295.11;106581;1275;22542;-77
2023/12/07 00:31:03;;;;;;;56.10;28.00;;;;;;;0.79;86.87;95297.38;106727;1275;24294;-77
2023/12/07 00:33:31;;;;;;;49.80;26.20;;;;;;;0.74;87.26;95293.67;106641;1275;22685;-77
2023/12/07 00:35:59;;;;;;;49.30;27.10;;;;;;;0.69;87.39;95294.13;106686;1275;24294;-77
2023/12/07 00:38:27;;;;;;;41.90;24.70;;;;;;;0.62;87.34;95299.38;106666;1275;22524;-77
2023/12/07 00:40:56;;;;;;;46.30;26.10;;;;;;;0.55;87.74;95305.50;106585;1275;22546;-76
2023/12/07 00:43:25;;;;;;;47.80;25.90;;;;;;;0.49;87.82;95305.93;106582;1275;22641;-76
2023/12/07 00:45:54;;;;;;;50.00;26.40;;;;;;;0.49;88.02;95305.59;106657;1275;25417;-76
2023/12/07 00:48:22;;;;;;;46.60;26.00;;;;;;;0.49;88.14;95307.66;106590;1275;22645;-76
2023/12/07 00:50:50;;;;;;;40.10;22.20;;;;;;;0.44;88.44;95309.68;106617;1275;22553;-76
2023/12/07 00:53:18;;;;;;;37.20;20.70;;;;;;;0.39;88.16;95306.64;106657;1275;22639;-76
2023/12/07 00:55:47;;;;;;;43.40;23.60;;;;;;;0.35;88.00;95310.21;106581;1275;24398;-76
2023/12/07 00:58:15;;;;;;;45.20;24.50;;;;;;;0.33;88.32;95305.86;106655;1275;22528;-76
2023/12/07 01:00:44;;;;;;;45.20;23.70;;;;;;;0.31;88.43;95306.36;106606;1275;22507;-76
2023/12/07 01:03:12;;;;;;;45.50;25.00;;;;;;;0.30;88.88;95298.89;106587;1275;22504;-76
2023/12/07 01:05:40;;;;;;;40.30;23.70;;;;;;;0.29;88.98;95295.77;106664;1264;22523;-76
2023/12/07 01:08:09;;;;;;;39.30;23.30;;;;;;;0.29;89.01;95297.31;106635;1275;25446;-76
2023/12/07 01:10:37;;;;;;;45.50;25.00;;;;;;;0.29;88.84;95300.25;106587;1275;22745;-76
2023/12/07 01:13:05;;;;;;;41.70;21.80;;;;;;;0.28;88.94;95296.09;106628;1264;22526;-76
2023/12/07 01:15:33;;;;;;;38.30;21.60;;;;;;;0.22;88.85;95291.15;106620;1275;22524;-76
2023/12/07 01:18:01;;;;;;;34.10;21.90;;;;;;;0.19;89.31;95290.59;106613;1275;24378;-76
2023/12/07 01:20:30;;;;;;;38.30;20.70;;;;;;;0.18;89.37;95288.15;106621;1253;22868;-76
2023/12/07 01:22:58;;;;;;;32.20;19.20;;;;;;;0.17;89.61;95287.43;106543;1275;24362;-76
2023/12/07 01:25:26;;;;;;;34.90;20.70;;;;;;;0.11;90.31;95287.86;106587;1275;25355;-76
2023/12/07 01:27:55;;;;;;;44.60;25.50;;;;;;;0.10;90.12;95285.95;106691;1275;22581;-76
2023/12/07 01:30:23;;;;;;;44.70;25.80;;;;;;;0.12;89.89;95285.80;106590;1275;22524;-76
2023/12/07 01:32:52;;;;;;;40.30;23.50;;;;;;;0.11;90.40;95289.94;106576;1275;22529;-76
2023/12/07 01:35:20;;;;;;;45.00;25.90;;;;;;;0.12;90.64;95281.48;106620;1275;24232;-76
2023/12/07 01:37:48;;;;;;;39.60;23.40;;;;;;;0.18;90.75;95278.63;106580;1275;22652;-76
2023/12/07 01:40:17;;;;;;;39.30;23.10;;;;;;;0.26;90.86;95281.88;106695;1275;25515;-76
2023/12/07 01:42:51;;;;;;;42.80;25.10;;;;;;;0.36;90.86;95281.16;106599;1275;22555;-76
2023/12/07 01:45:19;;;;;;;;;;;;;;;0.47;90.62;95282.72;106648;1275;25370;-76
2023/12/07 01:47:52;;;;;;;38.90;22.20;;;;;;;0.49;90.02;95280.33;106589;1275;22538;-76
2023/12/07 01:50:23;;;;;;;38.10;21.30;;;;;;;0.52;90.05;95278.46;106640;1275;25429;-76
2023/12/07 01:52:57;;;;;;;38.00;22.10;;;;;;;0.55;89.97;95278.34;106654;1275;25471;-76
2023/12/07 01:55:27;;;;;;;35.50;22.00;;;;;;;0.69;90.61;95270.73;106689;1275;25418;-76
2023/12/07 01:57:55;;;;;;;33.80;20.90;;;;;;;0.73;89.47;95273.05;106640;1275;22666;-76
2023/12/07 02:00:26;;;;;;;38.90;22.10;;;;;;;0.72;89.14;95270.27;106601;1275;22529;-76
2023/12/07 02:02:55;;;;;;;34.30;21.50;;;;;;;0.75;89.35;95268.94;106692;1275;24365;-76
2023/12/07 02:05:25;;;;;;;33.50;20.50;;;;;;;0.87;89.65;95271.51;106656;1275;24254;-76
2023/12/07 02:07:54;;;;;;;36.10;21.00;;;;;;;0.92;89.00;95268.64;106700;1275;22768;-76
2023/12/07 02:10:22;;;;;;;34.50;20.90;;;;;;;0.92;88.69;95273.31;106628;1275;25388;-76
2023/12/07 02:12:52;;;;;;;32.40;20.20;;;;;;;0.94;88.33;95274.55;106561;1275;22526;-77
2023/12/07 02:15:21;;;;;;;32.30;20.10;;;;;;;0.86;87.85;95271.16;106723;1275;22979;-77
2023/12/07 02:18:03;;;;;;;34.40;20.90;;;;;;;0.79;88.06;95274.70;106585;1275;24394;-77
2023/12/07 02:20:39;;;;;;;40.60;24.10;;;;;;;0.76;88.56;95276.23;106614;1275;25566;-77
2023/12/07 02:23:08;;;;;;;37.80;21.70;;;;;;;0.84;88.94;95276.14;106700;1275;22789;-77
2023/12/07 02:28:58;;;;;;;39.20;23.90;;;;;;;1.04;88.92;95275.36;106594;1275;22584;-78
2023/12/07 02:31:28;;;;;;;35.00;21.70;;;;;;;1.09;88.62;95276.31;106611;1275;24425;-77
2023/12/07 02:33:57;;;;;;;34.50;21.90;;;;;;;1.05;87.61;95280.59;106565;1275;25256;-78
2023/12/07 02:36:28;;;;;;;37.30;20.90;;;;;;;0.93;87.36;95283.36;106778;1260;24221;-77
2023/12/07 02:38:58;;;;;;;35.60;20.60;;;;;;;0.83;87.65;95283.23;106650;1275;23882;-78
2023/12/07 02:41:28;;;;;;;32.90;19.20;;;;;;;0.74;87.72;95288.66;106605;1275;22637;-78
2023/12/07 02:43:57;;;;;;;38.90;21.40;;;;;;;0.64;87.88;95285.90;106673;1275;22522;-78
2023/12/07 02:46:26;;;;;;;40.20;23.10;;;;;;;0.60;88.09;95291.21;106578;1275;22601;-78
2023/12/07 02:48:54;;;;;;;45.90;25.70;;;;;;;0.54;88.36;95288.19;106603;1275;25508;-78
2023/12/07 02:51:23;;;;;;;42.70;24.50;;;;;;;0.50;88.84;95291.23;106629;1275;22526;-77
2023/12/07 02:53:51;;;;;;;41.50;23.90;;;;;;;0.46;88.77;95294.64;106570;1275;25637;-77
2023/12/07 02:56:19;;;;;;;45.90;25.40;;;;;;;0.39;88.42;95289.70;106573;1275;22639;-77
2023/12/07 02:58:47;;;;;;;49.30;25.80;;;;;;;0.35;89.04;95288.61;106678;1275;22526;-77
2023/12/07 03:01:16;;;;;;;45.00;25.50;;;;;;;0.34;89.29;95289.45;106572;1271;22783;-77
2023/12/07 03:03:44;;;;;;;48.10;25.50;;;;;;;0.31;89.49;95292.67;106612;1275;24244;-77
2023/12/07 03:06:12;;;;;;;41.60;23.10;;;;;;;0.28;89.68;95296.09;106637;1275;25336;-76
2023/12/07 03:08:40;;;;;;;41.20;23.90;;;;;;;0.26;90.24;95298.30;106611;1264;22584;-76
2023/12/07 03:11:08;;;;;;;40.90;21.30;;;;;;;0.23;90.30;95293.25;106581;1264;26517;-76
2023/12/07 03:13:37;;;;;;;36.10;20.30;;;;;;;0.21;89.96;95297.19;106591;1275;23317;-76
2023/12/07 03:16:09;;;;;;;33.70;20.50;;;;;;;0.17;90.14;95297.31;106597;1275;22520;-76
2023/12/07 03:18:38;;;;;;;39.10;23.10;;;;;;;0.15;90.10;95304.04;106708;1275;24437;-76
2023/12/07 03:21:07;;;;;;;46.30;25.20;;;;;;;0.16;90.29;95305.94;106624;1253;22759;-76
2023/12/07 03:23:36;;;;;;;44.10;25.60;;;;;;;0.18;90.36;95304.73;106638;1275;24414;-76
2023/12/07 03:26:04;;;;;;;39.70;22.90;;;;;;;0.17;90.64;95302.84;106659;1271;23025;-76
2023/12/07 03:28:32;;;;;;;55.10;29.10;;;;;;;0.16;90.80;95306.28;106636;1275;24295;-76
2023/12/07 03:31:01;;;;;;;55.00;30.60;;;;;;;0.18;90.52;95301.81;106591;1275;24212;-76
2023/12/07 03:33:29;;;;;;;54.70;27.50;;;;;;;0.19;90.54;95309.78;106638;1275;25413;-76
2023/12/07 03:35:57;;;;;;;50.50;28.90;;;;;;;0.20;90.41;95307.55;106609;1275;22674;-76
2023/12/07 03:38:25;;;;;;;48.50;28.40;;;;;;;0.22;90.72;95304.13;106698;1275;25425;-76
2023/12/07 03:40:54;;;;;;;45.70;26.50;;;;;;;0.25;90.80;95301.92;106649;1275;24354;-77
2023/12/07 03:43:22;;;;;;;42.40;24.60;;;;;;;0.28;90.68;95301.27;106631;1275;22519;-76
2023/12/07 03:45:51;;;;;;;43.90;26.70;;;;;;;0.36;91.10;95298.65;106693;1275;24342;-76
2023/12/07 03:48:20;;;;;;;48.50;27.40;;;;;;;0.46;91.15;95304.33;106795;1275;25417;-76
2023/12/07 03:50:48;;;;;;;46.50;26.30;;;;;;;0.51;90.55;95304.40;106645;1275;22527;-76
2023/12/07 03:53:16;;;;;;;53.10;29.00;;;;;;;0.50;90.05;95305.94;106827;1253;25325;-77
2023/12/07 03:55:45;;;;;;;54.40;30.00;;;;;;;0.47;89.73;95310.58;106894;1275;22622;-76
2023/12/07 03:58:13;;;;;;;54.40;29.40;;;;;;;0.45;89.86;95306.91;106731;1275;25306;-76
2023/12/07 04:00:41;;;;;;;51.10;27.70;;;;;;;0.52;90.43;95307.02;106672;1275;22937;-76
2023/12/07 04:03:10;;;;;;;46.70;26.90;;;;;;;0.64;90.62;95303.73;106570;1275;22618;-76
2023/12/07 04:05:38;;;;;;;52.70;28.50;;;;;;;0.76;90.39;95298.73;106883;1275;25339;-76
2023/12/07 04:08:07;;;;;;;45.50;25.70;;;;;;;0.75;89.37;95298.52;106636;1275;24862;-76
2023/12/07 04:10:35;;;;;;;51.80;30.20;;;;;;;0.68;89.01;95302.26;106590;1275;24287;-76
2023/12/07 04:13:03;;;;;;;49.50;28.70;;;;;;;0.68;89.43;95303.80;106590;1275;22658;-75
2023/12/07 04:15:31;;;;;;;47.10;28.00;;;;;;;0.71;89.39;95303.84;106537;1275;22646;-76
2023/12/07 04:17:59;;;;;;;47.80;27.20;;;;;;;0.74;89.40;95309.60;106759;1275;22535;-76
2023/12/07 04:20:28;;;;;;;51.40;27.50;;;;;;;0.80;89.71;95309.52;106568;1275;24407;-77
2023/12/07 04:22:57;;;;;;;47.30;26.80;;;;;;;0.78;89.14;95314.52;106750;1275;22611;-77
2023/12/07 04:25:25;;;;;;;41.90;23.90;;;;;;;0.79;89.11;95309.66;106613;1275;22638;-77
2023/12/07 04:27:53;;;;;;;40.00;22.70;;;;;;;0.75;88.92;95313.92;106606;1275;22534;-76
2023/12/07 04:30:22;;;;;;;38.80;21.10;;;;;;;0.73;89.08;95315.29;106651;1275;24250;-75
2023/12/07 04:32:51;;;;;;;37.90;22.30;;;;;;;0.70;88.86;95318.73;106852;1275;25340;-76
2023/12/07 04:35:19;;;;;;;39.80;23.10;;;;;;;0.63;88.74;95321.38;106974;1275;22576;-76
2023/12/07 04:37:47;;;;;;;38.00;22.50;;;;;;;0.65;89.38;95319.32;106703;1275;26133;-76
2023/12/07 04:40:15;;;;;;;37.80;22.00;;;;;;;0.71;89.64;95323.05;106585;1275;25502;-76
2023/12/07 04:42:44;;;;;;;38.30;21.60;;;;;;;0.70;89.13;95327.19;106675;1275;23324;-76
2023/12/07 04:45:12;;;;;;;36.20;21.60;;;;;;;0.67;88.77;95329.22;106571;1275;22543;-76
2023/12/07 04:47:41;;;;;;;37.60;22.40;;;;;;;0.67;89.19;95331.81;106779;1275;24225;-76
2023/12/07 04:50:09;;;;;;;37.30;22.20;;;;;;;0.68;89.33;95328.39;106684;1275;22534;-76
2023/12/07 04:52:38;;;;;;;38.70;22.20;;;;;;;0.67;89.28;95331.83;106821;1275;22529;-77
2023/12/07 04:55:07;;;;;;;38.00;22.10;;;;;;;0.62;89.07;95332.09;106981;1275;22523;-76
2023/12/07 04:57:36;;;;;;;32.10;19.80;;;;;;;0.58;89.28;95334.63;106846;1275;22532;-76
2023/12/07 05:00:09;;;;;;;25.80;15.60;;;;;;;0.55;89.29;95341.17;106592;1275;22984;-76
2023/12/07 05:02:38;;;;;;;27.20;16.40;;;;;;;0.48;88.91;95343.28;106589;1265;22516;-77
2023/12/07 05:05:06;;;;;;;28.40;17.30;;;;;;;0.42;89.20;95345.64;106718;1275;24536;-77
2023/12/07 05:07:34;;;;;;;25.10;16.10;;;;;;;0.43;89.60;95350.84;106689;1275;22523;-76
2023/12/07 05:10:03;;;;;;;25.80;17.20;;;;;;;0.43;89.60;95350.31;106666;1275;24363;-76
2023/12/07 05:12:32;;;;;;;30.50;17.40;;;;;;;0.40;89.48;95352.86;106699;1275;22542;-76
2023/12/07 05:15:02;;;;;;;25.60;15.30;;;;;;;0.36;89.79;95348.83;106550;1275;23013;-76
2023/12/07 05:17:30;;;;;;;25.70;15.10;;;;;;;0.33;89.90;95353.09;106575;1275;25428;-76
2023/12/07 05:19:58;;;;;;;23.70;15.20;;;;;;;0.30;90.22;95353.37;106635;1275;25358;-76
2023/12/07 05:22:27;;;;;;;23.40;15.10;;;;;;;0.28;90.18;95354.22;106651;1271;22658;-76
2023/12/07 05:24:56;;;;;;;27.80;15.70;;;;;;;0.25;90.32;95354.17;106993;1275;24325;-77
2023/12/07 05:27:24;;;;;;;23.70;14.90;;;;;;;0.25;90.43;95359.17;106638;1275;24223;-76
2023/12/07 05:29:53;;;;;;;24.80;15.70;;;;;;;0.24;90.38;95364.87;106840;1275;22581;-76
2023/12/07 05:32:21;;;;;;;25.70;16.30;;;;;;;0.23;90.25;95365.39;107039;1275;24073;-77
2023/12/07 05:34:50;;;;;;;27.60;15.60;;;;;;;0.22;90.32;95367.61;106703;1275;22734;-76
2023/12/07 05:37:19;;;;;;;27.40;16.00;;;;;;;0.19;90.47;95368.75;106830;1275;22526;-76
2023/12/07 05:39:47;;;;;;;32.60;18.90;;;;;;;0.17;90.54;95374.96;106648;1275;22748;-76
2023/12/07 05:42:15;;;;;;;67.50;28.80;;;;;;;0.17;90.53;95369.77;106581;1275;22746;-76
2023/12/07 05:44:44;;;;;;;63.70;27.80;;;;;;;0.15;90.70;95372.15;106664;1275;22762;-77
2023/12/07 05:47:12;;;;;;;69.70;33.40;;;;;;;0.14;90.73;95376.29;106871;1275;26769;-76
2023/12/07 05:49:40;;;;;;;73.10;34.90;;;;;;;0.16;90.81;95379.44;106632;1275;22524;-76
2023/12/07 05:52:08;;;;;;;70.50;32.10;;;;;;;0.18;90.63;95374.29;106608;1275;22533;-77
2023/12/07 05:54:36;;;;;;;58.30;29.80;;;;;;;0.22;90.73;95370.02;106967;1275;23143;-76
2023/12/07 05:57:04;;;;;;;48.90;26.20;;;;;;;0.28;90.89;95373.58;106751;1275;25505;-76
2023/12/07 05:59:38;;;;;;;42.60;23.80;;;;;;;0.32;90.84;95375.73;106550;1275;22618;-76
2023/12/07 06:02:06;;;;;;;51.60;28.40;;;;;;;0.33;90.46;95383.38;106674;1275;25343;-75
2023/12/07 06:04:35;;;;;;;55.30;29.40;;;;;;;0.33;90.48;95389.77;106781;1264;25475;-76
2023/12/07 06:07:03;;;;;;;54.40;29.50;;;;;;;0.32;90.67;95389.25;106812;1275;24227;-75
2023/12/07 06:09:32;;;;;;;52.10;27.30;;;;;;;0.37;91.07;95388.80;106712;1273;25496;-75
2023/12/07 06:12:00;;;;;;;52.20;29.60;;;;;;;0.43;90.88;95394.44;106670;1276;25429;-75
2023/12/07 06:14:29;;;;;;;55.40;29.50;;;;;;;0.49;91.01;95399.20;106732;1261;22539;-74
2023/12/07 06:16:59;;;;;;;59.10;32.60;;;;;;;0.59;91.22;95403.01;106756;1276;25509;-75
2023/12/07 06:19:27;;;;;;;76.90;40.20;;;;;;;0.62;90.46;95404.63;106842;1276;24289;-74
2023/12/07 06:21:55;;;;;;;70.20;36.00;;;;;;;0.65;90.63;95401.20;106805;1276;25050;-74
2023/12/07 06:24:24;;;;;;;90.20;45.40;;;;;;;0.73;90.69;95398.05;106698;1265;22935;-75
2023/12/07 06:26:52;;;;;;;72.60;39.30;;;;;;;0.82;90.63;95396.11;106875;1276;24257;-75
2023/12/07 06:29:21;;;;;;;77.30;39.60;;;;;;;0.91;90.46;95401.79;106668;1276;22532;-76
2023/12/07 06:31:49;;;;;;;95.50;49.90;;;;;;;1.01;90.18;95405.58;106652;1276;25400;-76
2023/12/07 06:34:17;;;;;;;108.70;53.60;;;;;;;1.05;89.49;95404.09;106653;1276;24353;-76
2023/12/07 06:36:47;;;;;;;112.30;60.30;;;;;;;1.06;89.31;95407.57;106638;1276;24374;-75
2023/12/07 06:39:15;;;;;;;97.20;51.90;;;;;;;1.16;89.73;95404.58;106629;1276;24259;-76
2023/12/07 06:41:43;;;;;;;93.60;46.90;;;;;;;1.28;89.91;95404.08;106679;1276;24255;-75
2023/12/07 06:44:12;;;;;;;91.00;47.80;;;;;;;1.27;88.41;95408.21;106639;1276;24476;-75
2023/12/07 06:46:40;;;;;;;86.60;47.10;;;;;;;1.19;88.04;95407.23;106598;1276;24354;-75
2023/12/07 06:49:09;;;;;;;91.70;47.40;;;;;;;1.16;88.29;95411.52;106584;1276;22745;-76
2023/12/07 06:51:37;;;;;;;88.20;45.90;;;;;;;1.12;88.28;95415.45;106618;1276;22647;-76
2023/12/07 06:54:05;;;;;;;81.30;43.10;;;;;;;1.12;88.53;95414.40;106646;1275;24376;-76
2023/12/07 06:56:33;;;;;;;57.00;31.60;;;;;;;1.12;88.43;95415.96;106731;1276;22530;-78
2023/12/07 06:59:02;;;;;;;53.60;29.00;;;;;;;1.13;88.66;95420.64;106661;1253;22553;-79
2023/12/07 07:01:30;;;;;;;47.90;27.80;;;;;;;1.10;88.28;95417.50;106669;1276;22645;-76
2023/12/07 07:03:58;;;;;;;49.80;28.50;;;;;;;1.03;88.13;95418.26;106606;1276;26014;-76
2023/12/07 07:06:27;;;;;;;57.10;29.90;;;;;;;0.98;88.28;95423.73;106613;1276;24488;-76
2023/12/07 07:08:55;;;;;;;55.30;29.80;;;;;;;0.97;88.55;95427.00;106608;1275;22558;-76
2023/12/07 07:11:28;;;;;;;52.80;28.90;;;;;;;0.99;88.70;95430.15;106647;1276;22792;-76
2023/12/07 07:13:57;;;;;;;48.70;25.10;;;;;;;0.98;88.57;95425.80;106513;1276;24306;-75
2023/12/07 07:16:25;;;;;;;44.80;24.40;;;;;;;0.94;88.27;95424.52;106630;1276;25423;-74
2023/12/07 07:18:53;;;;;;;44.90;24.20;;;;;;;0.87;88.34;95428.39;106689;1276;24272;-75
2023/12/07 07:21:22;;;;;;;39.30;23.20;;;;;;;0.86;88.72;95429.42;106824;1276;22765;-74
2023/12/07 07:23:50;;;;;;;43.00;24.60;;;;;;;0.86;88.82;95425.43;106687;1276;24388;-74
2023/12/07 07:26:18;;;;;;;46.80;24.50;;;;;;;0.85;88.81;95429.23;106493;1276;22546;-73
2023/12/07 07:28:46;;;;;;;40.80;21.90;;;;;;;0.82;88.73;95435.94;106613;1277;22649;-73
2023/12/07 07:31:15;;;;;;;44.10;23.30;;;;;;;0.79;88.67;95435.38;106760;1274;23655;-73
2023/12/07 07:33:44;;;;;;;38.00;20.90;;;;;;;0.76;88.55;95438.27;106731;1277;26629;-73
2023/12/07 07:36:14;;;;;;;43.70;23.70;;;;;;;0.73;88.91;95440.30;106699;1277;22539;-74
2023/12/07 07:38:43;;;;;;;45.50;25.70;;;;;;;0.75;89.13;95437.89;106806;1277;22739;-74
2023/12/07 07:41:12;;;;;;;44.00;25.50;;;;;;;0.78;89.42;95441.41;106753;1277;22925;-74
2023/12/07 07:43:40;;;;;;;37.30;22.80;;;;;;;0.81;89.60;95441.98;106642;1277;22543;-75
2023/12/07 07:46:08;;;;;;;42.70;24.30;;;;;;;0.83;89.38;95446.18;106683;1277;22529;-75
2023/12/07 07:48:37;;;;;;;43.80;23.30;;;;;;;0.88;89.59;95449.19;106678;1270;22737;-74
2023/12/07 07:51:06;;;;;;;38.30;22.70;;;;;;;0.92;89.58;95446.83;106528;1278;22585;-74
2023/12/07 07:53:34;;;;;;;38.50;21.30;;;;;;;0.96;89.43;95444.98;106514;1278;24357;-74
2023/12/07 07:56:02;;;;;;;39.00;21.10;;;;;;;0.99;89.39;95447.99;106711;1278;22528;-74
2023/12/07 07:58:30;;;;;;;40.50;21.40;;;;;;;1.00;89.45;95449.21;106718;1278;22608;-74
2023/12/07 08:00:59;;;;;;;45.10;23.30;;;;;;;1.00;89.27;95450.42;106755;1278;22644;-74
2023/12/07 08:03:27;;;;;;;45.10;23.40;;;;;;;1.02;89.48;95446.98;106574;1277;22645;-75
2023/12/07 08:05:55;;;;;;;45.20;24.60;;;;;;;1.09;89.48;95445.54;106505;1278;22532;-76
2023/12/07 08:08:26;;;;;;;38.40;21.80;;;;;;;1.14;89.41;95450.11;106563;1278;23586;-76
2023/12/07 08:10:54;;;;;;;44.10;21.60;;;;;;;1.23;89.67;95451.65;106515;1278;22542;-76
2023/12/07 08:13:24;;;;;;;40.70;21.50;;;;;;;1.28;88.98;95449.13;106515;1278;23199;-77
2023/12/07 08:15:52;;;;;;;38.00;20.70;;;;;;;1.34;88.79;95451.45;106433;1278;22526;-76
2023/12/07 08:18:26;;;;;;;41.40;20.80;;;;;;;1.40;88.91;95447.91;106811;1270;22646;-77
2023/12/07 08:20:54;;;;;;;36.80;20.00;;;;;;;1.47;88.75;95450.77;106757;1276;24287;-75
2023/12/07 08:23:22;;;;;;;35.30;18.90;;;;;;;1.48;87.93;95455.99;106503;1277;25309;-77
2023/12/07 08:25:51;;;;;;;39.20;20.50;;;;;;;1.46;87.70;95453.19;106620;1277;22587;-76
2023/12/07 08:28:19;;;;;;;38.30;19.50;;;;;;;1.54;88.40;95453.13;106541;1276;25252;-74
2023/12/07 08:30:48;;;;;;;39.00;18.60;;;;;;;1.66;88.38;95449.30;106950;1276;24983;-76
2023/12/07 08:33:17;;;;;;;33.90;18.40;;;;;;;1.62;87.21;95459.13;107166;1276;22615;-76
2023/12/07 08:35:45;;;;;;;33.30;19.00;;;;;;;1.55;87.11;95459.56;106788;1276;22549;-76
2023/12/07 08:38:14;;;;;;;35.30;18.50;;;;;;;1.62;87.34;95458.95;106740;1276;22561;-76
2023/12/07 08:40:42;;;;;;;31.50;16.70;;;;;;;1.64;87.17;95460.02;106803;1276;22642;-76
2023/12/07 08:43:10;;;;;;;28.40;16.40;;;;;;;1.61;86.78;95466.05;106696;1276;22520;-76
2023/12/07 08:45:39;;;;;;;30.00;17.50;;;;;;;1.59;86.88;95465.52;106681;1276;24271;-75
2023/12/07 08:48:08;;;;;;;31.90;17.00;;;;;;;1.59;86.65;95465.50;106885;1276;22573;-76
2023/12/07 08:50:36;;;;;;;30.20;16.60;;;;;;;1.54;86.71;95467.85;107221;1273;24223;-76
2023/12/07 08:53:04;;;;;;;32.00;18.10;;;;;;;1.51;86.67;95467.81;106940;1276;25361;-77
2023/12/07 08:55:33;;;;;;;30.90;18.10;;;;;;;1.51;86.91;95470.76;106887;1276;22608;-77
2023/12/07 08:58:04;;;;;;;28.10;15.60;;;;;;;1.51;86.98;95474.22;106733;1276;25344;-77
2023/12/07 09:00:33;;;;;;;62.60;31.50;;;;;;;1.48;86.86;95476.79;106762;1276;24407;-78
2023/12/07 09:03:02;;;;;;;36.00;19.20;;;;;;;1.44;86.88;95479.67;106741;1276;22521;-78
2023/12/07 09:05:31;;;;;;;35.10;19.90;;;;;;;1.42;87.10;95481.04;106663;1270;24050;-78
2023/12/07 09:08:00;;;;;;;31.90;18.90;;;;;;;1.41;87.26;95483.96;106744;1276;22577;-76
2023/12/07 09:10:28;;;;;;;38.00;20.30;;;;;;;1.45;87.31;95488.36;106714;1272;25252;-77
2023/12/07 09:12:57;;;;;;;56.20;29.60;;;;;;;1.47;87.43;95483.71;106685;1270;22536;-79
2023/12/07 09:15:25;;;;;;;42.40;22.90;;;;;;;1.50;87.46;95479.59;106895;1275;22526;-76
2023/12/07 09:17:54;;;;;;;35.00;20.90;;;;;;;1.48;87.12;95478.18;106684;1276;22548;-76
2023/12/07 09:20:22;;;;;;;40.10;21.10;;;;;;;1.43;87.21;95478.11;106712;1276;22548;-77
2023/12/07 09:22:51;;;;;;;37.20;21.20;;;;;;;1.41;87.33;95476.16;106701;1276;24282;-76
2023/12/07 09:25:19;;;;;;;38.40;20.30;;;;;;;1.38;87.45;95475.77;106825;1255;22607;-77
2023/12/07 09:27:48;;;;;;;33.40;17.70;;;;;;;1.35;87.54;95476.59;106717;1276;25438;-75
2023/12/07 09:30:16;;;;;;;27.60;16.60;;;;;;;1.31;87.40;95473.42;106815;1276;22768;-75
2023/12/07 09:32:44;;;;;;;35.00;18.80;;;;;;;1.26;87.54;95475.59;106661;1276;23938;-76
2023/12/07 09:35:17;;;;;;;32.50;17.80;;;;;;;1.25;87.75;95471.60;106748;1276;22685;-77
2023/12/07 09:37:46;;;;;;;37.30;21.50;;;;;;;1.23;87.93;95468.96;106674;1276;22644;-76
2023/12/07 09:40:21;;;;;;;42.80;22.60;;;;;;;1.22;88.30;95468.60;106760;1276;22550;-77
2023/12/07 09:42:50;;;;;;;34.30;19.20;;;;;;;1.21;88.48;95464.60;106781;1276;22575;-76
2023/12/07 09:45:20;;;;;;;30.10;17.50;;;;;;;1.20;88.52;95463.20;106740;1276;24129;-76
2023/12/07 09:47:53;;;;;;;31.30;18.90;;;;;;;1.20;88.46;95467.36;106740;1276;22532;-76
2023/12/07 09:50:24;;;;;;;30.80;17.40;;;;;;;1.21;88.53;95464.27;106870;1276;25369;-76
2023/12/07 09:52:56;;;;;;;26.80;16.70;;;;;;;1.24;88.53;95462.75;106685;1276;22644;-76
2023/12/07 09:55:36;;;;;;;25.00;15.80;;;;;;;1.23;88.14;95459.61;106648;1276;25387;-77
2023/12/07 09:58:06;;;;;;;26.50;15.40;;;;;;;1.20;88.22;95455.41;106759;1276;22939;-76
2023/12/07 10:00:37;;;;;;;27.80;15.50;;;;;;;1.17;87.99;95455.54;106615;1276;22536;-76
2023/12/07 10:03:07;;;;;;;31.50;18.20;;;;;;;1.15;88.11;95451.52;106608;1276;25250;-77
2023/12/07 10:05:57;;;;;;;34.80;19.50;;;;;;;1.16;88.38;95455.35;106690;1276;22525;-76
2023/12/07 10:08:30;;;;;;;36.80;20.40;;;;;;;1.17;88.40;95464.18;106608;1276;22573;-76
2023/12/07 10:11:08;;;;;;;37.50;21.00;;;;;;;1.18;88.51;95464.05;106746;1276;24278;-76
2023/12/07 10:13:37;;;;;;;31.40;18.80;;;;;;;1.24;88.68;95462.06;108266;1276;24242;-76
2023/12/07 10:16:17;;;;;;;37.50;20.10;;;;;;;1.28;88.71;95466.27;106610;1276;24391;-76
2023/12/07 10:18:46;;;;;;;32.00;18.90;;;;;;;1.36;88.83;95462.92;106532;1276;24366;-77
2023/12/07 10:21:15;;;;;;;32.20;18.80;;;;;;;1.38;88.39;95460.70;106652;1276;22589;-76
2023/12/07 10:23:46;;;;;;;32.50;18.60;;;;;;;1.39;88.30;95458.65;106669;1276;24250;-76
2023/12/07 10:26:19;;;;;;;36.00;19.20;;;;;;;1.42;88.02;95461.11;106709;1276;22671;-77
2023/12/07 10:28:54;;;;;;;30.60;17.50;;;;;;;1.41;87.76;95459.36;106622;1276;22536;-76
2023/12/07 10:31:23;;;;;;;30.60;17.40;;;;;;;1.43;87.82;95461.48;106660;1276;24279;-76
2023/12/07 10:33:52;;;;;;;30.20;18.00;;;;;;;1.52;88.21;95454.85;106702;1276;22583;-76
2023/12/07 10:36:21;;;;;;;33.40;17.90;;;;;;;1.60;88.05;95454.41;106621;1276;22533;-76
2023/12/07 10:38:53;;;;;;;30.30;17.30;;;;;;;1.66;87.71;95450.34;106600;1276;24407;-77
2023/12/07 10:41:23;;;;;;;31.70;18.20;;;;;;;1.66;87.27;95455.73;106653;1276;24399;-77
2023/12/07 10:44:00;;;;;;;31.20;17.10;;;;;;;1.65;86.92;95456.56;106599;1276;25441;-77
2023/12/07 10:46:32;;;;;;;31.30;17.80;;;;;;;1.65;87.26;95451.02;106564;1276;25513;-77
2023/12/07 10:49:05;;;;;;;30.50;16.70;;;;;;;1.69;87.21;95449.70;106668;1276;24078;-78
2023/12/07 10:52:06;;;;;;;29.70;17.10;;;;;;;1.69;86.90;95449.00;106601;1276;23262;-78
2023/12/07 10:54:56;;;;;;;32.60;17.40;;;;;;;1.65;87.01;95446.34;106672;1276;22524;-77
2023/12/07 10:57:25;;;;;;;35.00;18.20;;;;;;;1.67;87.21;95450.18;106638;1276;25259;-78
2023/12/07 10:59:57;;;;;;;75.80;36.00;;;;;;;1.67;87.01;95447.92;106601;1276;24221;-78
2023/12/07 11:02:27;;;;;;;39.90;20.50;;;;;;;1.61;86.65;95454.78;106415;1276;22568;-78
2023/12/07 11:04:57;;;;;;;31.00;17.40;;;;;;;1.56;86.94;95454.19;106601;1276;25252;-78
2023/12/07 11:07:34;;;;;;;31.40;17.20;;;;;;;1.56;87.19;95454.89;106603;1276;25284;-78
2023/12/07 11:10:25;;;;;;;29.60;16.80;;;;;;;1.59;87.39;95455.29;106724;1276;22530;-77
2023/12/07 11:13:09;;;;;;;34.20;18.30;;;;;;;1.59;87.13;95453.02;106599;1276;22537;-78
2023/12/07 11:15:37;;;;;;;31.00;17.10;;;;;;;1.56;87.01;95454.87;106662;1276;22682;-78
2023/12/07 11:18:06;;;;;;;30.70;15.90;;;;;;;1.49;87.07;95459.98;106572;1276;22649;-78
2023/12/07 11:20:43;;;;;;;30.80;17.00;;;;;;;1.42;87.21;95459.71;106574;1261;25539;-77
2023/12/07 11:23:17;;;;;;;27.10;14.50;;;;;;;1.38;87.54;95464.52;106690;1276;22649;-77
2023/12/07 11:25:46;;;;;;;;;;;;;;;1.30;87.46;95465.10;106656;1276;22501;-77
2023/12/07 11:28:15;;;;;;;31.80;16.50;;;;;;;1.27;87.80;95466.43;106604;1276;25255;-78
2023/12/07 11:30:47;;;;;;;27.00;15.70;;;;;;;1.25;87.77;95465.52;106472;1264;22523;-78